sensor_id;sensor_type;location;lat;lon;timestamp;pressure;altitude;pressure_sealevel;temperature;humidity
28606;BME280;46498;49.968;7.754;2023-03-04T00:03:24;97691.00;;;-0.70;100.00
28606;BME280;46498;49.968;7.754;2023-03-04T00:08:24;97696.00;;;-0.73;100.00
28606;BME280;46498;49.968;7.754;2023-03-04T00:13:25;97697.00;;;-0.73;100.00
28606;BME280;46498;49.968;7.754;2023-03-04T00:18:26;97705.00;;;-0.74;100.00
28606;BME280;46498;49.968;7.754;2023-03-04T00:23:27;97696.00;;;-0.60;100.00
28606;BME280;46498;49.968;7.754;2023-03-04T00:28:28;97709.00;;;-0.60;100.00
28606;BME280;46498;49.968;7.754;2023-03-04T00:33:29;97701.00;;;-0.57;100.00
28606;BME280;46498;49.968;7.754;2023-03-04T00:38:30;97695.00;;;-0.52;100.00
28606;BME280;46498;49.968;7.754;2023-03-04T00:43:31;97701.00;;;-0.53;100.00
28606;BME280;46498;49.968;7.754;2023-03-04T00:48:31;97700.00;;;-0.51;100.00
28606;BME280;46498;49.968;7.754;2023-03-04T00:53:33;97705.00;;;-0.54;100.00
28606;BME280;46498;49.968;7.754;2023-03-04T00:58:34;97708.00;;;-0.66;100.00
28606;BME280;46498;49.968;7.754;2023-03-04T01:03:35;97701.00;;;-0.57;100.00
28606;BME280;46498;49.968;7.754;2023-03-04T01:08:36;97706.00;;;-0.43;100.00
28606;BME280;46498;49.968;7.754;2023-03-04T01:13:37;97695.00;;;-0.62;100.00
28606;BME280;46498;49.968;7.754;2023-03-04T01:18:38;97705.00;;;-0.69;100.00
28606;BME280;46498;49.968;7.754;2023-03-04T01:23:42;97698.00;;;-0.52;100.00
28606;BME280;46498;49.968;7.754;2023-03-04T01:28:43;97694.00;;;-0.58;100.00
28606;BME280;46498;49.968;7.754;2023-03-04T01:33:44;97684.00;;;-0.55;100.00
28606;BME280;46498;49.968;7.754;2023-03-04T01:38:45;97677.00;;;-0.65;100.00
28606;BME280;46498;49.968;7.754;2023-03-04T01:43:46;97674.00;;;-0.71;100.00
28606;BME280;46498;49.968;7.754;2023-03-04T01:48:46;97671.00;;;-0.64;100.00
28606;BME280;46498;49.968;7.754;2023-03-04T01:53:48;97664.00;;;-0.70;100.00
28606;BME280;46498;49.968;7.754;2023-03-04T02:02:24;97662.00;;;-0.68;100.00
28606;BME280;46498;49.968;7.754;2023-03-04T02:07:25;97658.00;;;-0.86;100.00
28606;BME280;46498;49.968;7.754;2023-03-04T02:12:26;97656.00;;;-0.75;100.00
28606;BME280;46498;49.968;7.754;2023-03-04T02:17:27;97658.00;;;-0.64;100.00
28606;BME280;46498;49.968;7.754;2023-03-04T02:22:28;97652.00;;;-0.63;100.00
28606;BME280;46498;49.968;7.754;2023-03-04T02:27:29;97638.00;;;-0.59;100.00
28606;BME280;46498;49.968;7.754;2023-03-04T02:32:30;97641.00;;;-0.51;100.00
28606;BME280;46498;49.968;7.754;2023-03-04T02:37:31;97626.00;;;-0.67;100.00
28606;BME280;46498;49.968;7.754;2023-03-04T02:42:32;97629.00;;;-0.79;100.00
28606;BME280;46498;49.968;7.754;2023-03-04T02:47:33;97631.00;;;-0.72;100.00
28606;BME280;46498;49.968;7.754;2023-03-04T02:52:34;97629.00;;;-0.80;100.00
28606;BME280;46498;49.968;7.754;2023-03-04T02:57:35;97624.00;;;-0.88;100.00
28606;BME280;46498;49.968;7.754;2023-03-04T03:02:36;97626.00;;;-0.85;100.00
28606;BME280;46498;49.968;7.754;2023-03-04T03:07:37;97619.00;;;-0.88;100.00
28606;BME280;46498;49.968;7.754;2023-03-04T03:12:38;97618.00;;;-0.93;100.00
28606;BME280;46498;49.968;7.754;2023-03-04T03:17:39;97619.00;;;-0.80;100.00
28606;BME280;46498;49.968;7.754;2023-03-04T03:22:40;97622.00;;;-0.66;100.00
28606;BME280;46498;49.968;7.754;2023-03-04T03:27:42;97621.00;;;-0.43;100.00
28606;BME280;46498;49.968;7.754;2023-03-04T03:32:44;97618.00;;;-0.29;100.00
28606;BME280;46498;49.968;7.754;2023-03-04T03:37:45;97613.00;;;-0.09;100.00
28606;BME280;46498;49.968;7.754;2023-03-04T03:42:48;97620.00;;;-0.03;100.00
28606;BME280;46498;49.968;7.754;2023-03-04T03:47:49;97609.00;;;0.06;100.00
28606;BME280;46498;49.968;7.754;2023-03-04T03:52:50;97608.00;;;0.08;100.00
28606;BME280;46498;49.968;7.754;2023-03-04T03:57:50;97604.00;;;0.21;100.00
28606;BME280;46498;49.968;7.754;2023-03-04T04:02:53;97605.00;;;0.34;100.00
28606;BME280;46498;49.968;7.754;2023-03-04T04:07:55;97600.00;;;0.44;100.00
28606;BME280;46498;49.968;7.754;2023-03-04T04:12:56;97609.00;;;0.50;100.00
28606;BME280;46498;49.968;7.754;2023-03-04T04:17:57;97612.00;;;0.40;100.00
28606;BME280;46498;49.968;7.754;2023-03-04T04:22:57;97609.00;;;0.48;100.00
28606;BME280;46498;49.968;7.754;2023-03-04T04:27:58;97613.00;;;0.54;100.00
28606;BME280;46498;49.968;7.754;2023-03-04T04:32:59;97612.00;;;0.57;100.00
28606;BME280;46498;49.968;7.754;2023-03-04T04:38:01;97609.00;;;0.48;100.00
28606;BME280;46498;49.968;7.754;2023-03-04T04:43:02;97611.00;;;0.46;100.00
28606;BME280;46498;49.968;7.754;2023-03-04T04:48:03;97617.00;;;0.69;100.00
28606;BME280;46498;49.968;7.754;2023-03-04T04:53:04;97613.00;;;0.57;100.00
28606;BME280;46498;49.968;7.754;2023-03-04T04:58:06;97606.00;;;0.39;100.00
28606;BME280;46498;49.968;7.754;2023-03-04T05:03:07;97604.00;;;0.32;100.00
28606;BME280;46498;49.968;7.754;2023-03-04T05:08:08;97614.00;;;0.31;100.00
28606;BME280;46498;49.968;7.754;2023-03-04T05:13:09;97604.00;;;0.35;100.00
28606;BME280;46498;49.968;7.754;2023-03-04T05:18:10;97601.00;;;0.38;100.00
28606;BME280;46498;49.968;7.754;2023-03-04T05:23:11;97606.00;;;0.36;100.00
28606;BME280;46498;49.968;7.754;2023-03-04T05:28:11;97591.00;;;0.35;100.00
28606;BME280;46498;49.968;7.754;2023-03-04T05:33:14;97591.00;;;0.35;100.00
28606;BME280;46498;49.968;7.754;2023-03-04T05:38:18;97603.00;;;0.32;100.00
28606;BME280;46498;49.968;7.754;2023-03-04T05:43:19;97601.00;;;0.46;100.00
28606;BME280;46498;49.968;7.754;2023-03-04T05:48:22;97604.00;;;0.52;100.00
28606;BME280;46498;49.968;7.754;2023-03-04T05:53:23;97610.00;;;0.42;100.00
28606;BME280;46498;49.968;7.754;2023-03-04T05:58:24;97608.00;;;0.49;100.00
28606;BME280;46498;49.968;7.754;2023-03-04T06:03:25;97611.00;;;0.61;100.00
28606;BME280;46498;49.968;7.754;2023-03-04T06:08:26;97607.00;;;0.50;100.00
28606;BME280;46498;49.968;7.754;2023-03-04T06:13:27;97606.00;;;0.41;100.00
28606;BME280;46498;49.968;7.754;2023-03-04T06:18:28;97607.00;;;0.40;100.00
28606;BME280;46498;49.968;7.754;2023-03-04T06:23:29;97620.00;;;0.50;100.00
28606;BME280;46498;49.968;7.754;2023-03-04T06:28:30;97620.00;;;0.60;100.00
28606;BME280;46498;49.968;7.754;2023-03-04T06:33:31;97623.00;;;0.60;100.00
28606;BME280;46498;49.968;7.754;2023-03-04T06:38:32;97619.00;;;0.58;100.00
28606;BME280;46498;49.968;7.754;2023-03-04T06:43:32;97626.00;;;0.67;100.00
28606;BME280;46498;49.968;7.754;2023-03-04T06:48:33;97622.00;;;0.73;100.00
28606;BME280;46498;49.968;7.754;2023-03-04T06:53:35;97639.00;;;0.72;100.00
28606;BME280;46498;49.968;7.754;2023-03-04T06:58:36;97643.00;;;0.76;100.00
28606;BME280;46498;49.968;7.754;2023-03-04T07:03:37;97655.00;;;0.87;100.00
28606;BME280;46498;49.968;7.754;2023-03-04T07:08:38;97650.00;;;0.98;100.00
28606;BME280;46498;49.968;7.754;2023-03-04T07:13:39;97647.00;;;1.09;100.00
28606;BME280;46498;49.968;7.754;2023-03-04T07:18:40;97648.00;;;1.10;100.00
28606;BME280;46498;49.968;7.754;2023-03-04T07:23:41;97654.00;;;1.12;100.00
28606;BME280;46498;49.968;7.754;2023-03-04T07:28:43;97654.00;;;1.04;100.00
28606;BME280;46498;49.968;7.754;2023-03-04T07:33:44;97669.00;;;1.16;100.00
28606;BME280;46498;49.968;7.754;2023-03-04T07:38:47;97668.00;;;1.16;100.00
28606;BME280;46498;49.968;7.754;2023-03-04T07:43:49;97685.00;;;1.30;100.00
28606;BME280;46498;49.968;7.754;2023-03-04T07:48:50;97683.00;;;1.29;100.00
28606;BME280;46498;49.968;7.754;2023-03-04T07:53:53;97684.00;;;1.28;100.00
28606;BME280;46498;49.968;7.754;2023-03-04T07:58:55;97684.00;;;1.36;100.00
28606;BME280;46498;49.968;7.754;2023-03-04T08:03:57;97693.00;;;1.47;100.00
28606;BME280;46498;49.968;7.754;2023-03-04T08:09:04;97696.00;;;1.56;100.00
28606;BME280;46498;49.968;7.754;2023-03-04T08:14:06;97691.00;;;1.58;100.00
28606;BME280;46498;49.968;7.754;2023-03-04T08:19:10;97697.00;;;1.60;100.00
28606;BME280;46498;49.968;7.754;2023-03-04T08:24:12;97697.00;;;1.57;100.00
28606;BME280;46498;49.968;7.754;2023-03-04T08:29:17;97706.00;;;1.66;100.00
28606;BME280;46498;49.968;7.754;2023-03-04T08:34:23;97708.00;;;1.65;99.09
28606;BME280;46498;49.968;7.754;2023-03-04T08:39:24;97712.00;;;1.50;100.00
28606;BME280;46498;49.968;7.754;2023-03-04T08:44:26;97716.00;;;1.59;100.00
28606;BME280;46498;49.968;7.754;2023-03-04T08:49:27;97721.00;;;1.62;100.00
28606;BME280;46498;49.968;7.754;2023-03-04T08:54:28;97708.00;;;1.62;100.00
28606;BME280;46498;49.968;7.754;2023-03-04T08:59:29;97717.00;;;1.61;100.00
28606;BME280;46498;49.968;7.754;2023-03-04T09:04:29;97717.00;;;1.68;99.90
28606;BME280;46498;49.968;7.754;2023-03-04T09:09:30;97716.00;;;1.79;100.00
28606;BME280;46498;49.968;7.754;2023-03-04T09:14:31;97719.00;;;1.91;97.90
28606;BME280;46498;49.968;7.754;2023-03-04T09:19:35;97721.00;;;1.82;99.79
28606;BME280;46498;49.968;7.754;2023-03-04T09:24:36;97720.00;;;1.83;99.32
28606;BME280;46498;49.968;7.754;2023-03-04T09:29:37;97722.00;;;1.91;99.31
28606;BME280;46498;49.968;7.754;2023-03-04T09:34:38;97724.00;;;1.92;99.01
28606;BME280;46498;49.968;7.754;2023-03-04T09:39:39;97724.00;;;1.99;99.23
28606;BME280;46498;49.968;7.754;2023-03-04T09:44:42;97732.00;;;2.06;98.33
28606;BME280;46498;49.968;7.754;2023-03-04T09:49:51;97722.00;;;2.08;98.38
28606;BME280;46498;49.968;7.754;2023-03-04T09:55:03;97719.00;;;2.15;98.05
28606;BME280;46498;49.968;7.754;2023-03-04T10:00:14;97727.00;;;2.15;99.00
28606;BME280;46498;49.968;7.754;2023-03-04T10:05:20;97726.00;;;2.02;98.43
28606;BME280;46498;49.968;7.754;2023-03-04T10:10:28;97723.00;;;2.10;99.39
28606;BME280;46498;49.968;7.754;2023-03-04T10:15:41;97730.00;;;2.29;98.72
28606;BME280;46498;49.968;7.754;2023-03-04T10:20:56;97728.00;;;2.32;97.47
28606;BME280;46498;49.968;7.754;2023-03-04T10:26:01;97722.00;;;2.27;98.50
28606;BME280;46498;49.968;7.754;2023-03-04T10:31:27;97720.00;;;2.24;99.03
28606;BME280;46498;49.968;7.754;2023-03-04T10:36:39;97723.00;;;2.43;97.58
28606;BME280;46498;49.968;7.754;2023-03-04T10:41:45;97718.00;;;2.21;98.65
28606;BME280;46498;49.968;7.754;2023-03-04T10:46:56;97719.00;;;2.22;99.75
28606;BME280;46498;49.968;7.754;2023-03-04T10:52:12;97715.00;;;2.31;99.27
28606;BME280;46498;49.968;7.754;2023-03-04T10:57:20;97715.00;;;2.38;98.60
28606;BME280;46498;49.968;7.754;2023-03-04T11:02:33;97713.00;;;2.40;98.29
28606;BME280;46498;49.968;7.754;2023-03-04T11:07:39;97709.00;;;2.36;98.71
28606;BME280;46498;49.968;7.754;2023-03-04T11:13:20;97704.00;;;2.27;98.07
28606;BME280;46498;49.968;7.754;2023-03-04T11:18:40;97693.00;;;2.36;98.62
28606;BME280;46498;49.968;7.754;2023-03-04T11:23:49;97702.00;;;2.43;99.16
28606;BME280;46498;49.968;7.754;2023-03-04T11:28:59;97703.00;;;2.57;97.28
28606;BME280;46498;49.968;7.754;2023-03-04T11:34:06;97695.00;;;2.66;97.58
28606;BME280;46498;49.968;7.754;2023-03-04T11:39:28;97701.00;;;2.68;97.96
28606;BME280;46498;49.968;7.754;2023-03-04T11:44:33;97690.00;;;2.66;98.07
28606;BME280;46498;49.968;7.754;2023-03-04T11:58:11;97677.00;;;2.63;97.97
28606;BME280;46498;49.968;7.754;2023-03-04T12:03:41;97672.00;;;2.62;96.85
28606;BME280;46498;49.968;7.754;2023-03-04T12:08:58;97664.00;;;2.70;95.65
28606;BME280;46498;49.968;7.754;2023-03-04T12:14:12;97662.00;;;2.79;94.29
28606;BME280;46498;49.968;7.754;2023-03-04T12:19:47;97654.00;;;3.05;94.84
28606;BME280;46498;49.968;7.754;2023-03-04T12:26:37;97650.00;;;3.10;93.94
28606;BME280;46498;49.968;7.754;2023-03-04T12:31:41;97645.00;;;3.16;92.29
28606;BME280;46498;49.968;7.754;2023-03-04T12:56:37;97620.00;;;3.88;89.89
28606;BME280;46498;49.968;7.754;2023-03-04T13:02:28;97613.00;;;3.82;88.81
28606;BME280;46498;49.968;7.754;2023-03-04T13:08:10;97609.00;;;3.76;87.84
28606;BME280;46498;49.968;7.754;2023-03-04T13:13:38;97617.00;;;3.81;86.74
28606;BME280;46498;49.968;7.754;2023-03-04T13:18:39;97603.00;;;3.79;86.90
28606;BME280;46498;49.968;7.754;2023-03-04T13:23:40;97600.00;;;3.58;87.43
28606;BME280;46498;49.968;7.754;2023-03-04T13:28:44;97588.00;;;3.49;89.01
28606;BME280;46498;49.968;7.754;2023-03-04T13:33:56;97588.00;;;3.67;90.42
28606;BME280;46498;49.968;7.754;2023-03-04T13:39:03;97585.00;;;3.95;87.42
28606;BME280;46498;49.968;7.754;2023-03-04T13:51:57;97573.00;;;3.94;88.88
28606;BME280;46498;49.968;7.754;2023-03-04T13:57:25;97570.00;;;4.01;87.39
28606;BME280;46498;49.968;7.754;2023-03-04T14:02:33;97574.00;;;3.94;89.14
28606;BME280;46498;49.968;7.754;2023-03-04T14:07:37;97569.00;;;4.07;88.60
28606;BME280;46498;49.968;7.754;2023-03-04T14:12:43;97562.00;;;3.97;88.39
28606;BME280;46498;49.968;7.754;2023-03-04T14:17:48;97563.00;;;4.07;89.06
28606;BME280;46498;49.968;7.754;2023-03-04T14:22:51;97554.00;;;4.01;88.78
28606;BME280;46498;49.968;7.754;2023-03-04T14:28:53;97546.00;;;4.15;88.02
28606;BME280;46498;49.968;7.754;2023-03-04T14:33:58;97543.00;;;4.11;88.14
28606;BME280;46498;49.968;7.754;2023-03-04T14:39:04;97538.00;;;4.10;88.28
28606;BME280;46498;49.968;7.754;2023-03-04T14:49:51;97537.00;;;3.64;92.11
28606;BME280;46498;49.968;7.754;2023-03-04T15:01:52;97527.00;;;3.78;92.15
28606;BME280;46498;49.968;7.754;2023-03-04T15:06:53;97529.00;;;3.86;91.81
28606;BME280;46498;49.968;7.754;2023-03-04T15:12:02;97524.00;;;3.87;92.41
28606;BME280;46498;49.968;7.754;2023-03-04T15:17:03;97522.00;;;3.94;92.11
28606;BME280;46498;49.968;7.754;2023-03-04T15:22:05;97519.00;;;4.01;91.60
28606;BME280;46498;49.968;7.754;2023-03-04T15:27:10;97514.00;;;3.97;92.45
28606;BME280;46498;49.968;7.754;2023-03-04T15:32:11;97506.00;;;3.96;91.71
28606;BME280;46498;49.968;7.754;2023-03-04T15:37:19;97509.00;;;4.07;91.42
28606;BME280;46498;49.968;7.754;2023-03-04T15:42:21;97511.00;;;3.95;91.87
28606;BME280;46498;49.968;7.754;2023-03-04T15:47:22;97505.00;;;3.85;92.06
28606;BME280;46498;49.968;7.754;2023-03-04T15:52:25;97504.00;;;3.81;92.28
28606;BME280;46498;49.968;7.754;2023-03-04T15:57:26;97506.00;;;3.77;93.28
28606;BME280;46498;49.968;7.754;2023-03-04T16:02:27;97505.00;;;3.82;92.70
28606;BME280;46498;49.968;7.754;2023-03-04T16:07:28;97499.00;;;3.76;94.10
28606;BME280;46498;49.968;7.754;2023-03-04T16:12:31;97503.00;;;3.70;94.74
28606;BME280;46498;49.968;7.754;2023-03-04T16:17:32;97502.00;;;3.70;95.65
28606;BME280;46498;49.968;7.754;2023-03-04T16:22:33;97499.00;;;3.64;96.57
28606;BME280;46498;49.968;7.754;2023-03-04T16:27:33;97498.00;;;3.65;96.60
28606;BME280;46498;49.968;7.754;2023-03-04T16:32:34;97491.00;;;3.66;96.91
28606;BME280;46498;49.968;7.754;2023-03-04T16:37:36;97489.00;;;3.61;97.52
28606;BME280;46498;49.968;7.754;2023-03-04T16:42:37;97486.00;;;3.64;96.65
28606;BME280;46498;49.968;7.754;2023-03-04T16:47:38;97486.00;;;3.57;98.46
28606;BME280;46498;49.968;7.754;2023-03-04T16:52:39;97479.00;;;3.48;98.81
28606;BME280;46498;49.968;7.754;2023-03-04T16:57:39;97483.00;;;3.51;99.24
28606;BME280;46498;49.968;7.754;2023-03-04T17:02:40;97493.00;;;3.50;99.71
28606;BME280;46498;49.968;7.754;2023-03-04T17:07:41;97490.00;;;3.57;99.25
28606;BME280;46498;49.968;7.754;2023-03-04T17:12:42;97490.00;;;3.62;98.61
28606;BME280;46498;49.968;7.754;2023-03-04T17:17:43;97493.00;;;3.52;99.04
28606;BME280;46498;49.968;7.754;2023-03-04T17:22:45;97487.00;;;3.43;100.00
28606;BME280;46498;49.968;7.754;2023-03-04T17:27:45;97487.00;;;3.43;100.00
28606;BME280;46498;49.968;7.754;2023-03-04T17:32:46;97497.00;;;3.37;100.00
28606;BME280;46498;49.968;7.754;2023-03-04T17:37:47;97490.00;;;3.38;100.00
28606;BME280;46498;49.968;7.754;2023-03-04T17:42:48;97488.00;;;3.36;100.00
28606;BME280;46498;49.968;7.754;2023-03-04T17:47:49;97493.00;;;3.40;100.00
28606;BME280;46498;49.968;7.754;2023-03-04T17:52:50;97487.00;;;3.22;100.00
28606;BME280;46498;49.968;7.754;2023-03-04T17:57:50;97484.00;;;3.27;100.00
28606;BME280;46498;49.968;7.754;2023-03-04T18:02:52;97488.00;;;3.35;100.00
28606;BME280;46498;49.968;7.754;2023-03-04T18:07:53;97482.00;;;3.31;100.00
28606;BME280;46498;49.968;7.754;2023-03-04T18:12:54;97487.00;;;3.22;100.00
28606;BME280;46498;49.968;7.754;2023-03-04T18:17:55;97480.00;;;3.26;100.00
28606;BME280;46498;49.968;7.754;2023-03-04T18:22:56;97478.00;;;3.30;100.00
28606;BME280;46498;49.968;7.754;2023-03-04T18:27:58;97475.00;;;3.26;100.00
28606;BME280;46498;49.968;7.754;2023-03-04T18:32:59;97477.00;;;3.31;100.00
28606;BME280;46498;49.968;7.754;2023-03-04T18:38:02;97476.00;;;3.25;100.00
28606;BME280;46498;49.968;7.754;2023-03-04T18:43:03;97475.00;;;3.28;100.00
28606;BME280;46498;49.968;7.754;2023-03-04T18:48:04;97476.00;;;3.29;100.00
28606;BME280;46498;49.968;7.754;2023-03-04T18:53:05;97466.00;;;3.29;100.00
28606;BME280;46498;49.968;7.754;2023-03-04T18:58:06;97466.00;;;3.33;100.00
28606;BME280;46498;49.968;7.754;2023-03-04T19:03:10;97471.00;;;3.48;100.00
28606;BME280;46498;49.968;7.754;2023-03-04T19:08:12;97482.00;;;3.32;100.00
28606;BME280;46498;49.968;7.754;2023-03-04T19:13:12;97465.00;;;3.18;100.00
28606;BME280;46498;49.968;7.754;2023-03-04T19:18:15;97464.00;;;3.18;100.00
28606;BME280;46498;49.968;7.754;2023-03-04T19:23:16;97465.00;;;3.18;100.00
28606;BME280;46498;49.968;7.754;2023-03-04T19:28:17;97471.00;;;3.20;100.00
28606;BME280;46498;49.968;7.754;2023-03-04T19:33:18;97463.00;;;3.27;100.00
28606;BME280;46498;49.968;7.754;2023-03-04T19:38:19;97470.00;;;3.28;100.00
28606;BME280;46498;49.968;7.754;2023-03-04T19:43:20;97467.00;;;3.18;100.00
28606;BME280;46498;49.968;7.754;2023-03-04T19:48:22;97464.00;;;3.23;100.00
28606;BME280;46498;49.968;7.754;2023-03-04T19:53:23;97465.00;;;3.13;100.00
28606;BME280;46498;49.968;7.754;2023-03-04T19:58:24;97459.00;;;3.15;100.00
28606;BME280;46498;49.968;7.754;2023-03-04T20:03:25;97463.00;;;3.09;100.00
28606;BME280;46498;49.968;7.754;2023-03-04T20:08:26;97463.00;;;3.01;100.00
28606;BME280;46498;49.968;7.754;2023-03-04T20:13:27;97460.00;;;2.98;100.00
28606;BME280;46498;49.968;7.754;2023-03-04T20:18:28;97456.00;;;3.01;100.00
28606;BME280;46498;49.968;7.754;2023-03-04T20:23:29;97454.00;;;2.94;100.00
28606;BME280;46498;49.968;7.754;2023-03-04T20:28:30;97448.00;;;2.87;100.00
28606;BME280;46498;49.968;7.754;2023-03-04T20:33:31;97459.00;;;2.94;100.00
28606;BME280;46498;49.968;7.754;2023-03-04T20:38:32;97461.00;;;2.82;100.00
28606;BME280;46498;49.968;7.754;2023-03-04T20:43:33;97471.00;;;2.88;100.00
28606;BME280;46498;49.968;7.754;2023-03-04T20:48:33;97463.00;;;2.97;100.00
28606;BME280;46498;49.968;7.754;2023-03-04T20:53:34;97474.00;;;2.95;100.00
28606;BME280;46498;49.968;7.754;2023-03-04T20:58:35;97474.00;;;2.97;100.00
28606;BME280;46498;49.968;7.754;2023-03-04T21:03:36;97476.00;;;2.96;100.00
28606;BME280;46498;49.968;7.754;2023-03-04T21:08:37;97463.00;;;3.05;100.00
28606;BME280;46498;49.968;7.754;2023-03-04T21:13:39;97462.00;;;3.01;100.00
28606;BME280;46498;49.968;7.754;2023-03-04T21:18:42;97467.00;;;3.04;100.00
28606;BME280;46498;49.968;7.754;2023-03-04T21:23:48;97459.00;;;2.92;100.00
28606;BME280;46498;49.968;7.754;2023-03-04T21:28:52;97455.00;;;2.92;100.00
28606;BME280;46498;49.968;7.754;2023-03-04T21:33:54;97457.00;;;2.93;100.00
28606;BME280;46498;49.968;7.754;2023-03-04T21:38:55;97453.00;;;2.88;100.00
28606;BME280;46498;49.968;7.754;2023-03-04T21:43:56;97443.00;;;2.87;100.00
28606;BME280;46498;49.968;7.754;2023-03-04T21:48:57;97451.00;;;2.91;100.00
28606;BME280;46498;49.968;7.754;2023-03-04T21:53:58;97453.00;;;2.89;100.00
28606;BME280;46498;49.968;7.754;2023-03-04T21:59:00;97445.00;;;2.92;100.00
28606;BME280;46498;49.968;7.754;2023-03-04T22:04:02;97444.00;;;2.95;100.00
28606;BME280;46498;49.968;7.754;2023-03-04T22:09:03;97442.00;;;2.94;100.00
28606;BME280;46498;49.968;7.754;2023-03-04T22:14:04;97447.00;;;2.95;100.00
28606;BME280;46498;49.968;7.754;2023-03-04T22:19:06;97452.00;;;2.95;100.00
28606;BME280;46498;49.968;7.754;2023-03-04T22:24:06;97443.00;;;2.96;100.00
28606;BME280;46498;49.968;7.754;2023-03-04T22:29:07;97440.00;;;2.99;100.00
28606;BME280;46498;49.968;7.754;2023-03-04T22:34:10;97447.00;;;3.00;100.00
28606;BME280;46498;49.968;7.754;2023-03-04T22:39:12;97432.00;;;2.91;100.00
28606;BME280;46498;49.968;7.754;2023-03-04T22:44:14;97434.00;;;3.21;100.00
28606;BME280;46498;49.968;7.754;2023-03-04T22:49:14;97433.00;;;3.22;100.00
28606;BME280;46498;49.968;7.754;2023-03-04T22:54:16;97435.00;;;2.99;100.00
28606;BME280;46498;49.968;7.754;2023-03-04T22:59:17;97427.00;;;2.97;100.00
28606;BME280;46498;49.968;7.754;2023-03-04T23:04:18;97427.00;;;2.98;100.00
28606;BME280;46498;49.968;7.754;2023-03-04T23:09:19;97426.00;;;2.93;100.00
28606;BME280;46498;49.968;7.754;2023-03-04T23:14:20;97427.00;;;2.92;100.00
28606;BME280;46498;49.968;7.754;2023-03-04T23:19:21;97421.00;;;2.85;100.00
28606;BME280;46498;49.968;7.754;2023-03-04T23:24:22;97417.00;;;2.84;100.00
28606;BME280;46498;49.968;7.754;2023-03-04T23:29:26;97423.00;;;2.80;100.00
28606;BME280;46498;49.968;7.754;2023-03-04T23:34:27;97426.00;;;2.83;100.00
28606;BME280;46498;49.968;7.754;2023-03-04T23:39:27;97421.00;;;2.75;100.00
28606;BME280;46498;49.968;7.754;2023-03-04T23:44:28;97407.00;;;2.73;100.00
28606;BME280;46498;49.968;7.754;2023-03-04T23:49:29;97413.00;;;2.82;100.00
28606;BME280;46498;49.968;7.754;2023-03-04T23:54:30;97411.00;;;2.75;100.00
28606;BME280;46498;49.968;7.754;2023-03-04T23:59:31;97400.00;;;2.75;100.00
